createdAt,value
2022-08-31T00:00:31.889Z,12.111111111111143
2022-08-31T00:01:32.012Z,12
2022-08-31T00:02:31.971Z,12
2022-08-31T00:03:31.888Z,12
2022-08-31T00:04:31.933Z,12
2022-08-31T00:05:31.895Z,12
2022-08-31T00:06:31.908Z,12
2022-08-31T00:07:31.892Z,12
2022-08-31T00:08:31.895Z,12
2022-08-31T00:09:31.889Z,12
2022-08-31T00:10:36.808Z,12
2022-08-31T00:11:31.894Z,12
2022-08-31T00:12:31.887Z,12
2022-08-31T00:13:31.954Z,12
2022-08-31T00:14:31.904Z,12
2022-08-31T00:15:31.915Z,11.888888888888971
2022-08-31T00:16:32.067Z,11.888888888888971
2022-08-31T00:17:31.886Z,11.888888888888971
2022-08-31T00:18:31.885Z,11.888888888888971
2022-08-31T00:19:31.917Z,11.888888888888971
2022-08-31T00:20:33.058Z,11.888888888888971
2022-08-31T00:21:31.905Z,11.888888888888971
2022-08-31T00:22:31.881Z,11.888888888888971
2022-08-31T00:23:31.887Z,11.888888888888971
2022-08-31T00:24:31.912Z,11.888888888888971
2022-08-31T00:25:31.887Z,11.888888888888971
2022-08-31T00:26:31.851Z,12
2022-08-31T00:27:31.901Z,12
2022-08-31T00:28:31.882Z,12
2022-08-31T00:29:31.886Z,12
2022-08-31T00:30:31.911Z,12
2022-08-31T00:31:31.943Z,12
2022-08-31T00:32:31.890Z,12
2022-08-31T00:33:31.907Z,12
2022-08-31T00:34:31.866Z,12
2022-08-31T00:35:31.920Z,12
2022-08-31T00:36:31.884Z,12
2022-08-31T00:37:31.885Z,12
2022-08-31T00:38:31.877Z,12
2022-08-31T00:39:31.907Z,12
2022-08-31T00:40:31.926Z,12
2022-08-31T00:41:31.885Z,12
2022-08-31T00:42:31.904Z,12
2022-08-31T00:43:31.897Z,12
2022-08-31T00:44:31.873Z,12
2022-08-31T00:45:31.914Z,12
2022-08-31T00:46:31.858Z,11.888888888888971
2022-08-31T00:47:31.903Z,11.888888888888971
2022-08-31T00:48:31.883Z,11.888888888888971
2022-08-31T00:49:31.883Z,11.888888888888971
2022-08-31T00:50:31.853Z,11.888888888888971
2022-08-31T00:51:31.875Z,11.888888888888971
2022-08-31T00:52:37.444Z,11.888888888888971
2022-08-31T00:53:31.892Z,11.888888888888971
2022-08-31T00:54:31.877Z,11.777777777777828
2022-08-31T00:55:31.986Z,11.777777777777828
2022-08-31T00:56:31.906Z,11.777777777777828
2022-08-31T00:57:34.471Z,11.777777777777828
2022-08-31T00:58:31.893Z,11.777777777777828
2022-08-31T00:59:31.872Z,11.777777777777828
2022-08-31T01:00:31.874Z,11.777777777777828
2022-08-31T01:01:31.961Z,11.777777777777828
2022-08-31T01:02:32.022Z,11.777777777777828
2022-08-31T01:03:31.871Z,11.777777777777828
2022-08-31T01:04:31.868Z,11.777777777777828
2022-08-31T01:05:31.896Z,11.777777777777828
2022-08-31T01:06:31.834Z,11.777777777777828
2022-08-31T01:07:31.866Z,11.777777777777828
2022-08-31T01:08:31.894Z,11.777777777777828
2022-08-31T01:09:31.921Z,11.777777777777828
2022-08-31T01:10:31.883Z,11.777777777777828
2022-08-31T01:11:31.878Z,11.777777777777828
2022-08-31T01:12:31.891Z,11.777777777777828
2022-08-31T01:13:31.882Z,11.777777777777828
2022-08-31T01:14:31.892Z,11.777777777777828
2022-08-31T01:15:31.859Z,11.777777777777828
2022-08-31T01:16:32.090Z,11.777777777777828
2022-08-31T01:17:31.854Z,11.777777777777828
2022-08-31T01:18:31.895Z,11.777777777777828
2022-08-31T01:19:31.872Z,11.777777777777828
2022-08-31T01:20:31.948Z,11.777777777777828
2022-08-31T01:21:31.951Z,11.722222222222229
2022-08-31T01:22:31.881Z,11.722222222222229
2022-08-31T01:23:31.858Z,11.722222222222229
2022-08-31T01:24:31.891Z,11.777777777777828
2022-08-31T01:25:33.367Z,11.777777777777828
2022-08-31T01:26:31.881Z,11.722222222222229
2022-08-31T01:27:31.874Z,11.722222222222229
2022-08-31T01:28:31.942Z,11.722222222222229
2022-08-31T01:29:32.093Z,11.722222222222229
2022-08-31T01:30:31.897Z,11.722222222222229
2022-08-31T01:31:31.945Z,11.722222222222229
2022-08-31T01:32:31.890Z,11.722222222222229
2022-08-31T01:33:31.967Z,11.722222222222229
2022-08-31T01:34:31.915Z,11.722222222222229
2022-08-31T01:35:31.867Z,11.6111111111112
2022-08-31T01:36:31.888Z,11.6111111111112
2022-08-31T01:37:32.886Z,11.6111111111112
2022-08-31T01:38:31.892Z,11.6111111111112
2022-08-31T01:39:31.875Z,11.6111111111112
2022-08-31T01:40:32.169Z,11.6111111111112
2022-08-31T01:41:32.061Z,11.6111111111112
2022-08-31T01:42:34.254Z,11.6111111111112
2022-08-31T01:43:32.054Z,11.6111111111112
2022-08-31T01:44:32.010Z,11.6111111111112
2022-08-31T01:45:32.040Z,11.500000000000057
2022-08-31T01:46:32.034Z,11.500000000000057
2022-08-31T01:47:32.008Z,11.500000000000057
2022-08-31T01:48:31.891Z,11.500000000000057
2022-08-31T01:49:31.855Z,11.500000000000057
2022-08-31T01:50:31.871Z,11.500000000000057
2022-08-31T01:51:31.879Z,11.500000000000057
2022-08-31T01:52:31.880Z,11.500000000000057
2022-08-31T01:53:31.893Z,11.500000000000057
2022-08-31T01:54:31.904Z,11.500000000000057
2022-08-31T01:55:31.847Z,11.500000000000057
2022-08-31T01:56:31.857Z,11.388888888888971
2022-08-31T01:57:34.177Z,11.388888888888971
2022-08-31T01:58:31.865Z,11.388888888888971
2022-08-31T01:59:31.872Z,11.388888888888971
2022-08-31T02:00:31.985Z,11.388888888888971
2022-08-31T02:01:33.775Z,11.388888888888971
2022-08-31T02:02:31.914Z,11.388888888888971
2022-08-31T02:03:31.866Z,11.388888888888971
2022-08-31T02:04:31.898Z,11.388888888888971
2022-08-31T02:05:32.178Z,11.388888888888971
2022-08-31T02:06:31.935Z,11.388888888888971
2022-08-31T02:07:31.905Z,11.277777777777828
2022-08-31T02:08:31.886Z,11.277777777777828
2022-08-31T02:09:31.835Z,11.277777777777828
2022-08-31T02:10:31.889Z,11.277777777777828
2022-08-31T02:11:31.901Z,11.277777777777828
2022-08-31T02:12:31.871Z,11.277777777777828
2022-08-31T02:13:31.850Z,11.277777777777828
2022-08-31T02:14:31.875Z,11.277777777777828
2022-08-31T02:15:31.889Z,11.222222222222285
2022-08-31T02:16:31.938Z,11.222222222222285
2022-08-31T02:17:31.846Z,11.222222222222285
2022-08-31T02:18:31.880Z,11.222222222222285
2022-08-31T02:19:31.871Z,11.222222222222285
2022-08-31T02:20:31.914Z,11.222222222222285
2022-08-31T02:21:31.834Z,11.222222222222285
2022-08-31T02:22:31.879Z,11.222222222222285
2022-08-31T02:23:31.873Z,11.222222222222285
2022-08-31T02:24:31.904Z,11.222222222222285
2022-08-31T02:25:31.887Z,11.222222222222285
2022-08-31T02:26:31.896Z,11.222222222222285
2022-08-31T02:27:31.882Z,11.111111111111143
2022-08-31T02:28:31.864Z,11.111111111111143
2022-08-31T02:29:31.838Z,11.111111111111143
2022-08-31T02:30:31.874Z,11.111111111111143
2022-08-31T02:31:31.910Z,11.111111111111143
2022-08-31T02:32:31.884Z,11.111111111111143
2022-08-31T02:33:31.866Z,11.111111111111143
2022-08-31T02:34:31.860Z,11.111111111111143
2022-08-31T02:35:31.883Z,11.111111111111143
2022-08-31T02:36:31.893Z,11.000000000000057
2022-08-31T02:37:31.844Z,11.000000000000057
2022-08-31T02:38:31.896Z,11.000000000000057
2022-08-31T02:39:31.888Z,11.000000000000057
2022-08-31T02:40:31.953Z,11.000000000000057
2022-08-31T02:41:31.849Z,11.000000000000057
2022-08-31T02:42:52.213Z,11.000000000000057
2022-08-31T02:43:32.011Z,11.000000000000057
2022-08-31T02:44:31.870Z,11.000000000000057
2022-08-31T02:45:31.836Z,11.000000000000057
2022-08-31T02:46:31.947Z,11.000000000000057
2022-08-31T02:47:31.863Z,11.000000000000057
2022-08-31T02:48:31.869Z,11.000000000000057
2022-08-31T02:49:31.859Z,11.000000000000057
2022-08-31T02:50:31.887Z,10.888888888888971
2022-08-31T02:51:31.878Z,11.000000000000057
2022-08-31T02:52:31.869Z,10.888888888888971
2022-08-31T02:53:31.954Z,11.000000000000057
2022-08-31T02:54:31.858Z,11.000000000000057
2022-08-31T02:55:31.874Z,11.000000000000057
2022-08-31T02:56:32.030Z,10.888888888888971
2022-08-31T02:57:31.850Z,10.888888888888971
2022-08-31T02:58:31.878Z,10.888888888888971
2022-08-31T02:59:31.867Z,10.888888888888971
2022-08-31T03:00:32.184Z,10.888888888888971
2022-08-31T03:01:31.938Z,10.888888888888971
2022-08-31T03:02:32.399Z,10.888888888888971
2022-08-31T03:03:32.000Z,10.888888888888971
2022-08-31T03:04:31.933Z,10.888888888888971
2022-08-31T03:05:31.860Z,10.888888888888971
2022-08-31T03:06:31.887Z,10.888888888888971
2022-08-31T03:07:31.858Z,10.888888888888971
2022-08-31T03:08:32.030Z,10.888888888888971
2022-08-31T03:09:31.852Z,10.888888888888971
2022-08-31T03:10:31.989Z,10.777777777777828
2022-08-31T03:11:32.069Z,10.888888888888971
2022-08-31T03:12:31.997Z,10.777777777777828
2022-08-31T03:13:31.903Z,10.777777777777828
2022-08-31T03:14:31.950Z,10.777777777777828
2022-08-31T03:15:32.078Z,10.777777777777828
2022-08-31T03:16:31.991Z,10.777777777777828
2022-08-31T03:17:32.038Z,10.888888888888971
2022-08-31T03:18:31.855Z,10.888888888888971
2022-08-31T03:19:32.037Z,10.888888888888971
2022-08-31T03:20:31.990Z,10.888888888888971
2022-08-31T03:21:32.016Z,10.888888888888971
2022-08-31T03:22:31.961Z,10.888888888888971
2022-08-31T03:23:32.026Z,10.888888888888971
2022-08-31T03:24:31.889Z,10.888888888888971
2022-08-31T03:25:31.947Z,10.888888888888971
2022-08-31T03:26:31.967Z,10.888888888888971
2022-08-31T03:27:31.879Z,10.888888888888971
2022-08-31T03:28:32.039Z,10.888888888888971
2022-08-31T03:29:32.078Z,10.777777777777828
2022-08-31T03:30:31.851Z,10.777777777777828
2022-08-31T03:31:31.956Z,10.777777777777828
2022-08-31T03:32:31.888Z,10.777777777777828
2022-08-31T03:33:31.904Z,10.777777777777828
2022-08-31T03:34:31.873Z,10.777777777777828
2022-08-31T03:35:31.856Z,10.777777777777828
2022-08-31T03:36:31.880Z,10.777777777777828
2022-08-31T03:37:31.870Z,10.777777777777828
2022-08-31T03:38:31.847Z,10.777777777777828
2022-08-31T03:39:31.866Z,10.777777777777828
2022-08-31T03:40:32.054Z,10.722222222222285
2022-08-31T03:41:31.881Z,10.722222222222285
2022-08-31T03:42:32.232Z,10.722222222222285
2022-08-31T03:43:31.888Z,10.722222222222285
2022-08-31T03:44:31.867Z,10.722222222222285
2022-08-31T03:45:31.925Z,10.722222222222285
2022-08-31T03:46:32.090Z,10.722222222222285
2022-08-31T03:47:31.909Z,10.722222222222285
2022-08-31T03:48:31.879Z,10.722222222222285
2022-08-31T03:49:31.872Z,10.722222222222285
2022-08-31T03:50:31.848Z,10.722222222222285
2022-08-31T03:51:31.879Z,10.611111111111143
2022-08-31T03:52:31.871Z,10.611111111111143
2022-08-31T03:53:31.887Z,10.611111111111143
2022-08-31T03:54:31.864Z,10.611111111111143
2022-08-31T03:55:32.621Z,10.611111111111143
2022-08-31T03:56:31.868Z,10.611111111111143
2022-08-31T03:57:31.865Z,10.500000000000057
2022-08-31T03:58:31.820Z,10.500000000000057
2022-08-31T03:59:31.849Z,10.500000000000057
2022-08-31T04:00:31.884Z,10.500000000000057
2022-08-31T04:01:31.975Z,10.500000000000057
2022-08-31T04:02:36.885Z,10.500000000000057
2022-08-31T04:03:31.851Z,10.500000000000057
2022-08-31T04:04:31.895Z,10.500000000000057
2022-08-31T04:05:31.878Z,10.500000000000057
2022-08-31T04:06:31.863Z,10.500000000000057
2022-08-31T04:07:38.431Z,10.500000000000057
2022-08-31T04:08:31.883Z,10.500000000000057
2022-08-31T04:09:31.853Z,10.500000000000057
2022-08-31T04:10:31.861Z,10.500000000000057
2022-08-31T04:11:45.077Z,10.500000000000057
2022-08-31T04:12:31.863Z,10.500000000000057
2022-08-31T04:13:31.947Z,10.500000000000057
2022-08-31T04:14:31.843Z,10.500000000000057
2022-08-31T04:15:31.887Z,10.500000000000057
2022-08-31T04:16:31.859Z,10.500000000000057
2022-08-31T04:17:31.858Z,10.500000000000057
2022-08-31T04:18:31.914Z,10.500000000000057
2022-08-31T04:19:31.858Z,10.500000000000057
2022-08-31T04:20:31.857Z,10.611111111111143
2022-08-31T04:21:31.865Z,10.611111111111143
2022-08-31T04:22:31.864Z,10.611111111111143
2022-08-31T04:23:31.867Z,10.611111111111143
2022-08-31T04:24:31.880Z,10.611111111111143
2022-08-31T04:25:31.916Z,10.611111111111143
2022-08-31T04:26:31.883Z,10.611111111111143
2022-08-31T04:27:31.836Z,10.611111111111143
2022-08-31T04:28:31.908Z,10.611111111111143
2022-08-31T04:29:31.866Z,10.611111111111143
2022-08-31T04:30:31.867Z,10.611111111111143
2022-08-31T04:31:31.925Z,10.611111111111143
2022-08-31T04:32:31.860Z,10.611111111111143
2022-08-31T04:33:31.871Z,10.611111111111143
2022-08-31T04:34:31.863Z,10.611111111111143
2022-08-31T04:35:31.834Z,10.611111111111143
2022-08-31T04:36:31.854Z,10.611111111111143
2022-08-31T04:37:31.881Z,10.611111111111143
2022-08-31T04:38:31.895Z,10.611111111111143
2022-08-31T04:39:31.842Z,10.611111111111143
2022-08-31T04:40:31.861Z,10.611111111111143
2022-08-31T04:41:31.906Z,10.611111111111143
2022-08-31T04:42:31.875Z,10.611111111111143
2022-08-31T04:43:31.849Z,10.611111111111143
2022-08-31T04:44:31.877Z,10.722222222222285
2022-08-31T04:45:31.907Z,10.722222222222285
2022-08-31T04:46:31.893Z,10.722222222222285
2022-08-31T04:47:31.847Z,10.722222222222285
2022-08-31T04:48:31.868Z,10.722222222222285
2022-08-31T04:49:31.861Z,10.722222222222285
2022-08-31T04:50:31.856Z,10.777777777777828
2022-08-31T04:51:31.836Z,10.777777777777828
2022-08-31T04:52:31.857Z,10.777777777777828
2022-08-31T04:53:31.836Z,10.777777777777828
2022-08-31T04:54:31.842Z,10.777777777777828
2022-08-31T04:55:31.840Z,10.777777777777828
2022-08-31T04:56:31.862Z,10.777777777777828
2022-08-31T04:57:31.871Z,10.777777777777828
2022-08-31T04:58:31.856Z,10.777777777777828
2022-08-31T04:59:31.834Z,11.000000000000057
2022-08-31T05:00:31.903Z,11.111111111111143
2022-08-31T05:01:36.114Z,11.277777777777828
2022-08-31T05:02:31.977Z,11.388888888888971
2022-08-31T05:03:31.834Z,11.6111111111112
2022-08-31T05:04:31.898Z,11.888888888888971
2022-08-31T05:05:31.876Z,12
2022-08-31T05:06:31.921Z,12.111111111111143
2022-08-31T05:07:31.900Z,12.111111111111143
2022-08-31T05:08:31.868Z,12.222222222222285
2022-08-31T05:09:31.836Z,12.277777777777828
2022-08-31T05:10:31.855Z,12.277777777777828
2022-08-31T05:11:31.854Z,12.111111111111143
2022-08-31T05:12:31.847Z,12
2022-08-31T05:13:31.915Z,11.888888888888971
2022-08-31T05:14:31.856Z,11.777777777777828
2022-08-31T05:15:31.966Z,11.722222222222229
2022-08-31T05:16:31.950Z,11.6111111111112
2022-08-31T05:17:31.870Z,11.6111111111112
2022-08-31T05:18:32.148Z,11.500000000000057
2022-08-31T05:19:31.863Z,11.388888888888971
2022-08-31T05:20:31.876Z,11.277777777777828
2022-08-31T05:21:31.855Z,11.277777777777828
2022-08-31T05:22:31.865Z,11.277777777777828
2022-08-31T05:23:31.858Z,11.277777777777828
2022-08-31T05:24:31.875Z,11.500000000000057
2022-08-31T05:25:31.854Z,11.500000000000057
2022-08-31T05:26:31.855Z,11.6111111111112
2022-08-31T05:27:31.881Z,11.6111111111112
2022-08-31T05:28:31.852Z,11.6111111111112
2022-08-31T05:29:31.875Z,11.6111111111112
2022-08-31T05:30:31.846Z,11.6111111111112
2022-08-31T05:31:31.938Z,11.6111111111112
2022-08-31T05:32:31.852Z,11.500000000000057
2022-08-31T05:33:31.849Z,11.500000000000057
2022-08-31T05:34:31.862Z,11.6111111111112
2022-08-31T05:35:31.858Z,11.722222222222229
2022-08-31T05:36:31.845Z,11.722222222222229
2022-08-31T05:37:31.919Z,11.722222222222229
2022-08-31T05:38:31.865Z,11.722222222222229
2022-08-31T05:39:31.933Z,11.722222222222229
2022-08-31T05:40:31.911Z,11.722222222222229
2022-08-31T05:41:31.856Z,11.6111111111112
2022-08-31T05:42:31.885Z,11.6111111111112
2022-08-31T05:43:31.870Z,11.500000000000057
2022-08-31T05:44:31.867Z,11.500000000000057
2022-08-31T05:45:31.834Z,11.500000000000057
2022-08-31T05:46:31.954Z,11.500000000000057
2022-08-31T05:47:31.933Z,11.500000000000057
2022-08-31T05:48:31.873Z,11.500000000000057
2022-08-31T05:49:32.247Z,11.500000000000057
2022-08-31T05:50:31.840Z,11.388888888888971
2022-08-31T05:51:34.930Z,11.388888888888971
2022-08-31T05:52:31.864Z,11.388888888888971
2022-08-31T05:53:31.871Z,11.388888888888971
2022-08-31T05:54:31.876Z,11.388888888888971
2022-08-31T05:55:31.863Z,11.388888888888971
2022-08-31T05:56:31.879Z,11.500000000000057
2022-08-31T05:57:31.909Z,11.500000000000057
2022-08-31T05:58:31.838Z,11.500000000000057
2022-08-31T05:59:31.852Z,11.500000000000057
2022-08-31T06:00:31.912Z,11.388888888888971
2022-08-31T06:01:32.084Z,11.388888888888971
2022-08-31T06:02:31.843Z,11.388888888888971
2022-08-31T06:03:31.856Z,11.388888888888971
2022-08-31T06:04:31.930Z,11.388888888888971
2022-08-31T06:05:31.897Z,11.388888888888971
2022-08-31T06:06:31.853Z,11.388888888888971
2022-08-31T06:07:31.783Z,11.388888888888971
2022-08-31T06:08:31.867Z,11.388888888888971
2022-08-31T06:09:31.851Z,11.388888888888971
2022-08-31T06:10:31.862Z,11.500000000000057
2022-08-31T06:11:31.828Z,11.500000000000057
2022-08-31T06:12:31.868Z,11.500000000000057
2022-08-31T06:13:31.913Z,11.500000000000057
2022-08-31T06:14:31.865Z,11.500000000000057
2022-08-31T06:15:31.858Z,11.500000000000057
2022-08-31T06:16:31.897Z,11.500000000000057
2022-08-31T06:17:31.837Z,11.500000000000057
2022-08-31T06:18:31.851Z,11.500000000000057
2022-08-31T06:19:31.851Z,11.500000000000057
2022-08-31T06:20:31.834Z,11.500000000000057
2022-08-31T06:21:31.837Z,11.500000000000057
2022-08-31T06:22:31.830Z,11.500000000000057
2022-08-31T06:23:31.826Z,11.6111111111112
2022-08-31T06:24:31.843Z,11.6111111111112
2022-08-31T06:25:31.809Z,11.6111111111112
2022-08-31T06:26:31.830Z,11.6111111111112
2022-08-31T06:27:31.894Z,11.6111111111112
2022-08-31T06:28:31.842Z,11.6111111111112
2022-08-31T06:29:31.934Z,11.6111111111112
2022-08-31T06:30:31.906Z,11.6111111111112
2022-08-31T06:31:31.904Z,11.6111111111112
2022-08-31T06:32:31.855Z,11.6111111111112
2022-08-31T06:33:31.830Z,11.6111111111112
2022-08-31T06:34:31.846Z,11.6111111111112
2022-08-31T06:35:31.849Z,11.722222222222229
2022-08-31T06:36:31.854Z,11.722222222222229
2022-08-31T06:37:31.856Z,11.722222222222229
2022-08-31T06:38:32.927Z,11.722222222222229
2022-08-31T06:39:31.890Z,11.777777777777828
2022-08-31T06:40:31.892Z,11.777777777777828
2022-08-31T06:41:36.190Z,11.888888888888971
2022-08-31T06:42:31.849Z,11.888888888888971
2022-08-31T06:43:31.891Z,12
2022-08-31T06:44:31.851Z,12.111111111111143
2022-08-31T06:45:31.844Z,12.111111111111143
2022-08-31T06:46:31.920Z,12.222222222222285
2022-08-31T06:47:31.851Z,12.222222222222285
2022-08-31T06:48:31.836Z,12.277777777777828
2022-08-31T06:49:31.834Z,12.277777777777828
2022-08-31T06:50:31.838Z,12.388888888888914
2022-08-31T06:51:31.843Z,12.388888888888914
2022-08-31T06:52:35.691Z,12.500000000000057
2022-08-31T06:53:31.817Z,12.500000000000057
2022-08-31T06:54:31.861Z,12.611111111111143
2022-08-31T06:55:31.859Z,12.611111111111143
2022-08-31T06:56:31.863Z,12.722222222222285
2022-08-31T06:57:31.813Z,12.722222222222285
2022-08-31T06:58:31.838Z,12.777777777777828
2022-08-31T06:59:31.848Z,12.777777777777828
2022-08-31T07:00:31.855Z,12.888888888888914
2022-08-31T07:01:35.182Z,12.888888888888914
2022-08-31T07:02:31.891Z,13.000000000000057
2022-08-31T07:03:31.858Z,13.000000000000057
2022-08-31T07:04:31.834Z,13.000000000000057
2022-08-31T07:05:31.831Z,13.000000000000057
2022-08-31T07:06:31.843Z,13.000000000000057
2022-08-31T07:07:31.851Z,13.111111111111143
2022-08-31T07:08:31.847Z,13.111111111111143
2022-08-31T07:09:31.834Z,13.222222222222285
2022-08-31T07:10:31.843Z,13.277777777777828
2022-08-31T07:11:31.841Z,13.277777777777828
2022-08-31T07:12:31.853Z,13.388888888888914
2022-08-31T07:13:31.832Z,13.500000000000057
2022-08-31T07:14:31.833Z,13.500000000000057
2022-08-31T07:15:31.888Z,13.6111111111112
2022-08-31T07:16:31.902Z,13.6111111111112
2022-08-31T07:17:31.858Z,13.722222222222285
2022-08-31T07:18:31.829Z,13.777777777777828
2022-08-31T07:19:31.827Z,13.777777777777828
2022-08-31T07:20:31.869Z,14.000000000000057
2022-08-31T07:21:31.845Z,14.000000000000057
2022-08-31T07:22:31.836Z,14.1111111111112
2022-08-31T07:23:31.851Z,14.1111111111112
2022-08-31T07:24:31.820Z,14.1111111111112
2022-08-31T07:25:31.839Z,14.222222222222229
2022-08-31T07:26:36.189Z,14.277777777777828
2022-08-31T07:27:31.850Z,14.388888888888971
2022-08-31T07:28:31.837Z,14.388888888888971
2022-08-31T07:29:31.844Z,14.5
2022-08-31T07:30:33.321Z,14.611111111111143
2022-08-31T07:31:31.867Z,14.611111111111143
2022-08-31T07:32:31.821Z,14.722222222222285
2022-08-31T07:33:31.863Z,14.722222222222285
2022-08-31T07:34:31.821Z,14.722222222222285
2022-08-31T07:35:31.851Z,14.611111111111143
2022-08-31T07:36:31.861Z,14.611111111111143
2022-08-31T07:37:32.078Z,14.777777777777828
2022-08-31T07:38:31.833Z,14.777777777777828
2022-08-31T07:39:31.830Z,14.777777777777828
2022-08-31T07:40:31.911Z,14.777777777777828
2022-08-31T07:41:31.820Z,14.777777777777828
2022-08-31T07:42:31.826Z,14.777777777777828
2022-08-31T07:43:31.847Z,14.777777777777828
2022-08-31T07:44:31.834Z,15.111111111111143
2022-08-31T07:45:35.658Z,15.277777777777828
2022-08-31T07:46:31.988Z,15.611111111111143
2022-08-31T07:47:31.838Z,15.722222222222285
2022-08-31T07:48:31.854Z,15.888888888888914
2022-08-31T07:49:31.845Z,16.1111111111112
2022-08-31T07:50:31.862Z,16.27777777777783
2022-08-31T07:51:31.837Z,16.27777777777783
2022-08-31T07:52:31.884Z,16.27777777777783
2022-08-31T07:53:31.895Z,16.27777777777783
2022-08-31T07:54:31.906Z,16.1111111111112
2022-08-31T07:55:31.833Z,16.000000000000057
2022-08-31T07:56:34.180Z,16.000000000000057
2022-08-31T07:57:32.025Z,16.000000000000057
2022-08-31T07:58:31.836Z,16.000000000000057
2022-08-31T07:59:31.828Z,16.000000000000057
2022-08-31T08:00:31.868Z,16.000000000000057
2022-08-31T08:01:31.870Z,16.1111111111112
2022-08-31T08:02:31.880Z,16.27777777777783
2022-08-31T08:03:31.972Z,16.500000000000057
2022-08-31T08:04:31.871Z,16.77777777777783
2022-08-31T08:05:31.867Z,16.77777777777783
2022-08-31T08:06:32.865Z,16.77777777777783
2022-08-31T08:07:31.789Z,16.6111111111112
2022-08-31T08:08:31.976Z,16.500000000000057
2022-08-31T08:09:32.334Z,16.500000000000057
2022-08-31T08:10:31.847Z,16.500000000000057
2022-08-31T08:11:31.860Z,16.500000000000057
2022-08-31T08:12:31.838Z,16.500000000000057
2022-08-31T08:13:31.840Z,16.6111111111112
2022-08-31T08:14:31.888Z,16.72222222222223
2022-08-31T08:15:31.837Z,16.77777777777783
2022-08-31T08:16:31.870Z,16.88888888888897
2022-08-31T08:17:31.829Z,16.88888888888897
2022-08-31T08:18:31.843Z,17.111111111111143
2022-08-31T08:19:31.841Z,17.222222222222285
2022-08-31T08:20:37.856Z,17.27777777777783
2022-08-31T08:21:31.892Z,17.388888888888914
2022-08-31T08:22:51.445Z,17.500000000000057
2022-08-31T08:23:31.908Z,17.722222222222285
2022-08-31T08:24:31.843Z,17.722222222222285
2022-08-31T08:25:31.847Z,17.722222222222285
2022-08-31T08:26:31.840Z,17.722222222222285
2022-08-31T08:27:31.820Z,17.500000000000057
2022-08-31T08:28:39.334Z,17.388888888888914
2022-08-31T08:29:33.577Z,17.388888888888914
2022-08-31T08:30:31.868Z,17.388888888888914
2022-08-31T08:31:31.926Z,17.500000000000057
2022-08-31T08:32:31.816Z,17.611111111111143
2022-08-31T08:33:31.827Z,17.722222222222285
2022-08-31T08:34:32.919Z,17.77777777777783
2022-08-31T08:35:31.932Z,17.77777777777783
2022-08-31T08:36:31.822Z,17.77777777777783
2022-08-31T08:37:56.558Z,17.77777777777783
2022-08-31T08:38:31.893Z,17.500000000000057
2022-08-31T08:39:31.891Z,17.27777777777783
2022-08-31T08:40:31.870Z,17.27777777777783
2022-08-31T08:41:31.826Z,17.27777777777783
2022-08-31T08:42:31.817Z,17.111111111111143
2022-08-31T08:43:31.849Z,17.111111111111143
2022-08-31T08:44:31.863Z,17.222222222222285
2022-08-31T08:45:31.888Z,17.222222222222285
2022-08-31T08:46:35.077Z,17.222222222222285
2022-08-31T08:47:37.609Z,17.27777777777783
2022-08-31T08:48:31.830Z,17.222222222222285
2022-08-31T08:49:31.825Z,17
2022-08-31T08:50:31.865Z,17
2022-08-31T08:51:31.845Z,17.111111111111143
2022-08-31T08:52:31.812Z,17.222222222222285
2022-08-31T08:53:31.834Z,17.388888888888914
2022-08-31T08:54:31.870Z,17.388888888888914
2022-08-31T08:55:31.838Z,17.500000000000057
2022-08-31T08:56:33.179Z,17.611111111111143
2022-08-31T08:57:31.827Z,17.722222222222285
2022-08-31T08:58:31.826Z,17.77777777777783
2022-08-31T08:59:31.810Z,17.888888888888914
2022-08-31T09:00:31.846Z,18.000000000000057
2022-08-31T09:01:31.915Z,18.111111111111143
2022-08-31T09:02:31.870Z,18.111111111111143
2022-08-31T09:03:31.849Z,18.000000000000057
2022-08-31T09:04:31.836Z,18.000000000000057
2022-08-31T09:05:31.891Z,18.222222222222285
2022-08-31T09:06:32.131Z,18.222222222222285
2022-08-31T09:07:31.852Z,17.888888888888914
2022-08-31T09:08:31.805Z,17.77777777777783
2022-08-31T09:09:31.808Z,17.611111111111143
2022-08-31T09:10:31.820Z,17.27777777777783
2022-08-31T09:11:31.849Z,17.222222222222285
2022-08-31T09:12:31.854Z,17.222222222222285
2022-08-31T09:13:31.796Z,17.222222222222285
2022-08-31T09:14:31.892Z,17.111111111111143
2022-08-31T09:15:31.834Z,17.111111111111143
2022-08-31T09:16:31.876Z,17.111111111111143
2022-08-31T09:17:31.830Z,17
2022-08-31T09:18:31.844Z,16.88888888888897
2022-08-31T09:19:31.835Z,16.72222222222223
2022-08-31T09:20:31.828Z,16.6111111111112
2022-08-31T09:21:31.800Z,16.6111111111112